createdAt,value
2023-02-04T00:01:04.650Z,59.30
2023-02-04T00:03:35.610Z,59.20
2023-02-04T00:06:06.178Z,59.20
2023-02-04T00:08:36.537Z,59.20
2023-02-04T00:11:07.438Z,59.20
2023-02-04T00:13:37.631Z,59.10
2023-02-04T00:16:08.308Z,58.90
2023-02-04T00:18:38.660Z,58.90
2023-02-04T00:21:09.228Z,58.90
2023-02-04T00:23:39.489Z,58.80
2023-02-04T00:26:10.007Z,58.80
2023-02-04T00:28:40.301Z,58.70
2023-02-04T00:31:10.838Z,58.70
2023-02-04T00:33:41.190Z,58.70
2023-02-04T00:36:12.205Z,58.50
2023-02-04T00:38:42.448Z,58.50
2023-02-04T00:41:13.706Z,58.50
2023-02-04T00:43:44.027Z,58.50
2023-02-04T00:46:14.483Z,58.40
2023-02-04T00:48:44.796Z,58.40
2023-02-04T00:51:15.360Z,58.40
2023-02-04T00:53:45.861Z,57.90
2023-02-04T00:56:16.379Z,57.60
2023-02-04T00:58:46.797Z,57.70
2023-02-04T01:01:17.231Z,57.80
2023-02-04T01:03:47.469Z,57.90
2023-02-04T01:06:17.864Z,58.00
2023-02-04T01:08:48.275Z,58.00
2023-02-04T01:11:19.196Z,58.00
2023-02-04T01:13:49.977Z,57.90
2023-02-04T01:16:21.344Z,57.90
2023-02-04T01:18:52.028Z,57.90
2023-02-04T01:21:22.677Z,57.80
2023-02-04T01:23:53.125Z,57.80
2023-02-04T01:26:24.206Z,57.80
2023-02-04T01:28:54.600Z,57.80
2023-02-04T01:31:25.319Z,58.40
2023-02-04T01:33:55.681Z,57.60
2023-02-04T01:36:26.393Z,57.50
2023-02-04T01:38:56.730Z,57.50
2023-02-04T01:41:28.527Z,57.50
2023-02-04T01:43:58.905Z,58.10
2023-02-04T01:46:29.669Z,57.50
2023-02-04T01:48:59.912Z,57.50
2023-02-04T01:51:33.871Z,57.40
2023-02-04T01:54:04.178Z,57.40
2023-02-04T01:56:34.658Z,57.40
2023-02-04T01:59:05.144Z,57.30
2023-02-04T02:01:45.799Z,57.20
2023-02-04T02:04:22.445Z,57.10
2023-02-04T02:06:59.014Z,57.10
2023-02-04T02:09:30.616Z,57.30
2023-02-04T02:12:01.257Z,57.10
2023-02-04T02:14:31.553Z,57.10
2023-02-04T02:17:01.922Z,57.10
2023-02-04T02:19:38.675Z,57.10
2023-02-04T02:22:17.985Z,57.10
2023-02-04T02:24:48.315Z,57.10
2023-02-04T02:27:19.221Z,57.10
2023-02-04T02:29:49.468Z,57.10
2023-02-04T02:32:20.654Z,57.10
2023-02-04T02:34:50.925Z,57.20
2023-02-04T02:37:21.490Z,57.20
2023-02-04T02:39:51.874Z,57.30
2023-02-04T02:42:24.470Z,57.30
2023-02-04T02:44:55.684Z,57.30
2023-02-04T02:47:27.272Z,57.30
2023-02-04T02:49:57.963Z,57.30
2023-02-04T02:52:28.361Z,57.20
2023-02-04T02:54:58.666Z,57.30
2023-02-04T02:57:28.900Z,57.30
2023-02-04T02:59:59.214Z,57.30
2023-02-04T03:02:29.798Z,57.20
2023-02-04T03:05:02.969Z,57.30
2023-02-04T03:07:33.409Z,57.30
2023-02-04T03:10:04.134Z,57.40
2023-02-04T03:12:34.571Z,57.30
2023-02-04T03:15:06.464Z,57.40
2023-02-04T03:17:37.522Z,57.30
2023-02-04T03:20:08.597Z,57.40
2023-02-04T03:22:39.092Z,57.40
2023-02-04T03:25:09.896Z,57.40
2023-02-04T03:27:40.596Z,57.20
2023-02-04T03:30:11.291Z,57.30
2023-02-04T03:32:43.727Z,57.30
2023-02-04T03:35:13.999Z,57.30
2023-02-04T03:37:44.340Z,57.30
2023-02-04T03:40:15.672Z,57.30
2023-02-04T03:42:45.925Z,57.30
2023-02-04T03:45:17.356Z,57.20
2023-02-04T03:47:47.617Z,57.20
2023-02-04T03:50:18.310Z,57.10
2023-02-04T03:52:50.642Z,57.10
2023-02-04T03:55:21.064Z,57.10
2023-02-04T03:57:51.295Z,57.10
2023-02-04T04:00:22.231Z,57.10
2023-02-04T04:02:54.252Z,57.10
2023-02-04T04:05:24.585Z,57.10
2023-02-04T04:07:57.960Z,57.00
2023-02-04T04:10:28.412Z,57.10
2023-02-04T04:12:59.192Z,57.10
2023-02-04T04:15:29.750Z,57.00
2023-02-04T04:18:00.236Z,56.80
2023-02-04T04:20:30.959Z,56.80
2023-02-04T04:23:01.704Z,56.90
2023-02-04T04:25:32.214Z,56.90
2023-02-04T04:28:02.507Z,56.90
2023-02-04T04:30:33.078Z,57.50
2023-02-04T04:33:03.452Z,56.80
2023-02-04T04:35:33.803Z,57.00
2023-02-04T04:38:05.076Z,57.00
2023-02-04T04:40:35.329Z,57.10
2023-02-04T04:43:06.049Z,57.20
2023-02-04T04:45:36.378Z,57.90
2023-02-04T04:48:06.947Z,57.40
2023-02-04T04:50:37.321Z,57.40
2023-02-04T04:53:12.707Z,57.40
2023-02-04T04:55:43.482Z,57.30
2023-02-04T04:58:13.735Z,57.10
2023-02-04T05:00:44.120Z,57.00
2023-02-04T05:03:14.446Z,57.10
2023-02-04T05:05:45.977Z,57.00
2023-02-04T05:08:21.702Z,57.00
2023-02-04T05:10:53.844Z,57.00
2023-02-04T05:13:26.910Z,57.00
2023-02-04T05:15:57.364Z,57.00
2023-02-04T05:18:27.767Z,57.00
2023-02-04T05:20:58.004Z,57.00
2023-02-04T05:23:28.278Z,57.00
2023-02-04T05:25:58.562Z,57.00
2023-02-04T05:28:28.861Z,57.00
2023-02-04T05:30:59.108Z,57.10
2023-02-04T05:33:29.428Z,57.10
2023-02-04T05:35:59.701Z,57.20
2023-02-04T05:38:32.802Z,57.20
2023-02-04T05:41:03.086Z,57.10
2023-02-04T05:43:33.358Z,57.10
2023-02-04T05:46:04.609Z,57.10
2023-02-04T05:48:35.267Z,57.10
2023-02-04T05:51:05.803Z,57.10
2023-02-04T05:53:36.293Z,57.10
2023-02-04T05:56:06.784Z,57.10
2023-02-04T05:58:38.214Z,57.10
2023-02-04T06:01:09.680Z,57.70
2023-02-04T06:03:40.123Z,57.10
2023-02-04T06:06:10.615Z,57.10
2023-02-04T06:08:41.146Z,57.10
2023-02-04T06:11:11.562Z,57.10
2023-02-04T06:13:42.064Z,57.10
2023-02-04T06:16:13.577Z,57.00
2023-02-04T06:18:45.221Z,57.00
2023-02-04T06:21:15.537Z,57.00
2023-02-04T06:23:46.352Z,56.90
2023-02-04T06:26:16.706Z,56.90
2023-02-04T06:28:47.183Z,56.80
2023-02-04T06:31:17.558Z,56.80
2023-02-04T06:33:48.219Z,56.80
2023-02-04T06:36:18.555Z,56.70
2023-02-04T06:38:48.822Z,56.70
2023-02-04T06:41:19.144Z,56.70
2023-02-04T06:43:49.829Z,56.60
2023-02-04T06:46:20.231Z,56.60
2023-02-04T06:48:50.724Z,56.50
2023-02-04T06:51:21.087Z,56.80
2023-02-04T06:53:51.828Z,56.90
2023-02-04T06:56:22.062Z,56.90
2023-02-04T06:58:52.649Z,56.90
2023-02-04T07:01:22.930Z,56.90
2023-02-04T07:03:53.199Z,57.00
2023-02-04T07:06:23.611Z,57.00
2023-02-04T07:08:54.117Z,57.00
2023-02-04T07:11:24.397Z,57.10
2023-02-04T07:13:54.634Z,57.20
2023-02-04T07:16:25.079Z,57.30
2023-02-04T07:18:55.622Z,57.40
2023-02-04T07:21:25.900Z,57.50
2023-02-04T07:23:56.418Z,57.50
2023-02-04T07:26:26.837Z,57.60
2023-02-04T07:28:57.598Z,57.50
2023-02-04T07:31:27.996Z,58.20
2023-02-04T07:33:58.387Z,57.70
2023-02-04T07:36:28.714Z,57.70
2023-02-04T07:38:59.268Z,57.70
2023-02-04T07:41:29.566Z,57.70
2023-02-04T07:44:00.031Z,57.70
2023-02-04T07:46:30.813Z,57.70
2023-02-04T07:49:01.246Z,57.60
2023-02-04T07:51:31.574Z,57.50
2023-02-04T07:54:02.046Z,57.50
2023-02-04T07:56:32.344Z,57.40
2023-02-04T07:59:02.822Z,57.50
2023-02-04T08:01:33.305Z,57.40
2023-02-04T08:04:03.713Z,57.30
2023-02-04T08:06:34.039Z,57.40
2023-02-04T08:09:04.474Z,57.50
2023-02-04T08:11:34.822Z,57.50
2023-02-04T08:14:05.151Z,57.50
2023-02-04T08:16:35.420Z,57.50
2023-02-04T08:19:05.938Z,57.50
2023-02-04T08:21:36.264Z,57.50
2023-02-04T08:24:06.824Z,57.50
2023-02-04T08:26:37.102Z,57.50
2023-02-04T08:29:07.363Z,57.60
2023-02-04T08:31:41.452Z,57.50
2023-02-04T08:34:11.821Z,57.50
2023-02-04T08:36:42.617Z,57.60
2023-02-04T08:39:14.357Z,57.60
2023-02-04T08:41:44.856Z,57.60
2023-02-04T08:44:15.346Z,57.60
2023-02-04T08:46:46.116Z,57.60
2023-02-04T08:49:16.656Z,57.70
2023-02-04T08:51:47.490Z,57.70
2023-02-04T08:54:17.906Z,57.70
2023-02-04T08:56:48.336Z,57.70
2023-02-04T08:59:18.570Z,57.70
2023-02-04T09:01:51.258Z,57.80
2023-02-04T09:04:23.082Z,57.80
2023-02-04T09:06:54.573Z,57.80
2023-02-04T09:09:26.387Z,57.80
2023-02-04T09:11:56.994Z,57.80
2023-02-04T09:14:27.320Z,57.80
2023-02-04T09:16:57.685Z,57.80
2023-02-04T09:19:28.216Z,57.80
2023-02-04T09:21:58.709Z,57.80
2023-02-04T09:24:28.964Z,57.80
2023-02-04T09:26:59.396Z,57.80
2023-02-04T09:29:29.678Z,57.80
2023-02-04T09:32:00.140Z,57.80
2023-02-04T09:34:30.609Z,57.80
2023-02-04T09:37:01.187Z,57.90
2023-02-04T09:39:32.545Z,57.80
2023-02-04T09:42:02.925Z,57.80
2023-02-04T09:44:33.284Z,57.90
2023-02-04T09:47:04.382Z,57.90
2023-02-04T09:49:35.428Z,57.90
2023-02-04T09:52:05.887Z,57.90
2023-02-04T09:54:37.207Z,57.90
2023-02-04T09:57:20.578Z,57.90
2023-02-04T09:59:53.671Z,57.80
2023-02-04T10:02:28.779Z,57.90
2023-02-04T10:05:00.557Z,57.80
2023-02-04T10:07:31.584Z,57.80
2023-02-04T10:10:01.960Z,57.80
2023-02-04T10:12:34.033Z,57.90
2023-02-04T10:15:05.607Z,57.90
2023-02-04T10:17:36.190Z,57.90
2023-02-04T10:20:07.002Z,57.90
2023-02-04T10:22:37.897Z,57.90
2023-02-04T10:25:15.983Z,57.90
2023-02-04T10:27:59.437Z,57.80
2023-02-04T10:30:43.200Z,57.80
2023-02-04T10:33:19.029Z,57.80
2023-02-04T10:35:51.723Z,57.80
2023-02-04T10:38:28.863Z,57.80
2023-02-04T10:41:07.349Z,57.80
2023-02-04T10:43:37.773Z,57.80
2023-02-04T10:46:08.295Z,57.80
2023-02-04T10:48:45.474Z,57.80
2023-02-04T10:51:16.405Z,57.80
2023-02-04T10:54:04.944Z,57.80
2023-02-04T10:56:35.320Z,57.90
2023-02-04T10:59:05.957Z,57.80
2023-02-04T11:01:36.461Z,57.80
2023-02-04T11:04:11.411Z,57.90
2023-02-04T11:06:41.649Z,57.90
2023-02-04T11:09:16.867Z,57.90
2023-02-04T11:11:53.904Z,57.90
2023-02-04T11:14:30.993Z,57.90
2023-02-04T11:17:03.984Z,58.50
2023-02-04T11:19:38.414Z,57.90
2023-02-04T11:22:38.201Z,58.00
2023-02-04T11:25:28.320Z,58.10
2023-02-04T11:27:58.702Z,58.10
2023-02-04T11:30:35.870Z,58.10
2023-02-04T11:33:08.633Z,58.10
2023-02-04T11:35:39.222Z,58.10
2023-02-04T11:38:37.435Z,58.20
2023-02-04T11:41:08.398Z,58.20
2023-02-04T11:43:39.225Z,58.30
2023-02-04T11:46:21.072Z,58.30
2023-02-04T11:48:57.033Z,58.20
2023-02-04T11:51:35.544Z,58.30
2023-02-04T11:54:05.901Z,58.30
2023-02-04T11:56:36.248Z,58.30
2023-02-04T11:59:06.509Z,58.30
2023-02-04T12:01:37.654Z,58.20
2023-02-04T12:04:10.697Z,58.30
2023-02-04T12:06:41.110Z,58.30
2023-02-04T12:09:18.866Z,58.30
2023-02-04T12:12:02.623Z,58.30
2023-02-04T12:14:37.132Z,58.30
2023-02-04T12:17:21.879Z,58.30
2023-02-04T12:19:52.075Z,58.20
2023-02-04T12:22:22.406Z,58.30
2023-02-04T12:24:54.300Z,58.30
2023-02-04T12:27:25.054Z,58.40
2023-02-04T12:29:55.292Z,58.30
2023-02-04T12:32:25.735Z,58.30
2023-02-04T12:34:56.231Z,58.30
2023-02-04T12:37:26.978Z,58.30
2023-02-04T12:39:57.595Z,58.30
2023-02-04T12:42:28.050Z,58.30
2023-02-04T12:44:58.598Z,58.30
2023-02-04T12:47:29.209Z,58.30
2023-02-04T12:49:59.505Z,58.30
2023-02-04T12:52:29.908Z,58.30
2023-02-04T12:55:01.898Z,58.30
2023-02-04T12:57:32.281Z,58.30
2023-02-04T13:00:03.713Z,58.30
2023-02-04T13:02:34.212Z,58.30
2023-02-04T13:05:04.501Z,58.30
2023-02-04T13:07:35.211Z,58.40
2023-02-04T13:10:06.020Z,58.30
2023-02-04T13:12:36.415Z,58.30
2023-02-04T13:15:07.671Z,58.30
2023-02-04T13:17:38.217Z,58.30
2023-02-04T13:20:08.835Z,58.30
2023-02-04T13:22:39.176Z,58.30
2023-02-04T13:25:11.168Z,58.30
2023-02-04T13:27:42.102Z,58.30
2023-02-04T13:30:13.949Z,58.40
2023-02-04T13:32:45.425Z,58.30
2023-02-04T13:35:15.909Z,58.30
2023-02-04T13:37:46.272Z,58.30
2023-02-04T13:40:16.541Z,58.40
2023-02-04T13:42:46.829Z,58.40
2023-02-04T13:45:18.060Z,58.30
2023-02-04T13:47:49.840Z,58.20
2023-02-04T13:50:20.203Z,58.30
2023-02-04T13:52:50.418Z,58.30
2023-02-04T13:55:21.442Z,58.30
2023-02-04T13:57:52.430Z,58.30
2023-02-04T14:00:23.027Z,58.30
2023-02-04T14:02:53.487Z,58.30
2023-02-04T14:05:23.797Z,58.40
2023-02-04T14:07:54.108Z,58.40
2023-02-04T14:10:26.589Z,58.40
2023-02-04T14:12:57.207Z,58.40
2023-02-04T14:15:27.883Z,58.40
2023-02-04T14:17:58.386Z,58.40
2023-02-04T14:20:28.983Z,58.40
2023-02-04T14:22:59.901Z,58.40
2023-02-04T14:25:30.225Z,58.40
2023-02-04T14:28:00.808Z,58.40
2023-02-04T14:30:32.755Z,58.40
2023-02-04T14:33:03.351Z,58.40
2023-02-04T14:35:35.166Z,58.50
2023-02-04T14:38:05.875Z,58.50
2023-02-04T14:40:36.107Z,58.50
2023-02-04T14:43:06.587Z,58.50
2023-02-04T14:45:36.836Z,58.50
2023-02-04T14:48:08.049Z,58.50
2023-02-04T14:50:38.214Z,58.50
2023-02-04T14:53:08.454Z,58.50
2023-02-04T14:55:38.873Z,58.50
2023-02-04T14:58:09.137Z,58.50
2023-02-04T15:00:39.313Z,58.50
2023-02-04T15:03:09.501Z,58.50
2023-02-04T15:05:39.739Z,58.50
2023-02-04T15:08:10.877Z,58.50
2023-02-04T15:10:41.126Z,58.50
2023-02-04T15:13:11.664Z,58.50
2023-02-04T15:15:41.862Z,58.50
2023-02-04T15:18:12.030Z,58.50
2023-02-04T15:20:42.236Z,58.60
2023-02-04T15:23:14.860Z,58.60
2023-02-04T15:25:45.165Z,58.60
2023-02-04T15:28:16.753Z,58.50
2023-02-04T15:30:47.054Z,58.60
2023-02-04T15:33:18.542Z,58.60
2023-02-04T15:35:48.787Z,58.60
2023-02-04T15:38:22.482Z,58.60
2023-02-04T15:40:52.729Z,58.70
2023-02-04T15:43:22.899Z,58.70
2023-02-04T15:45:53.251Z,58.70
2023-02-04T15:48:25.742Z,58.70
2023-02-04T15:50:56.508Z,58.70
2023-02-04T15:53:26.861Z,58.70
2023-02-04T15:55:57.049Z,58.70
2023-02-04T15:58:27.284Z,58.70
2023-02-04T16:00:57.599Z,58.70
2023-02-04T16:03:28.153Z,58.70
2023-02-04T16:05:58.359Z,58.70
2023-02-04T16:08:34.142Z,58.80
2023-02-04T16:11:05.967Z,58.70
2023-02-04T16:13:37.356Z,58.80
2023-02-04T16:16:07.861Z,58.70
2023-02-04T16:18:38.279Z,58.80
2023-02-04T16:21:08.870Z,58.80
2023-02-04T16:23:39.505Z,58.80
2023-02-04T16:26:10.562Z,58.80
2023-02-04T16:28:40.948Z,58.80
2023-02-04T16:31:11.747Z,58.90
2023-02-04T16:33:42.474Z,58.80
2023-02-04T16:36:14.304Z,58.90
2023-02-04T16:38:45.406Z,58.90
2023-02-04T16:41:15.935Z,58.80
2023-02-04T16:43:46.325Z,58.80
2023-02-04T16:46:17.752Z,58.90
2023-02-04T16:48:48.292Z,58.90
2023-02-04T16:51:19.612Z,59.50
2023-02-04T16:53:50.088Z,58.90
2023-02-04T16:56:20.526Z,58.90
2023-02-04T16:58:51.320Z,58.90
2023-02-04T17:01:21.679Z,59.00
2023-02-04T17:03:52.080Z,58.90
2023-02-04T17:06:22.368Z,59.00
2023-02-04T17:08:52.707Z,59.00
2023-02-04T17:11:35.476Z,59.00
2023-02-04T17:14:11.970Z,59.00
2023-02-04T17:16:42.302Z,59.00
2023-02-04T17:19:13.341Z,59.00
2023-02-04T17:21:43.999Z,59.00
2023-02-04T17:24:15.093Z,59.00
2023-02-04T17:26:45.278Z,59.00
2023-02-04T17:29:19.551Z,59.00
2023-02-04T17:31:50.204Z,59.00
2023-02-04T17:34:20.741Z,59.00
2023-02-04T17:36:51.040Z,59.00
2023-02-04T17:39:21.297Z,59.00
2023-02-04T17:41:51.643Z,59.70
2023-02-04T17:44:26.763Z,59.00
2023-02-04T17:46:59.015Z,59.00
2023-02-04T17:49:30.754Z,59.10
2023-02-04T17:52:02.572Z,59.10
2023-02-04T17:54:32.971Z,59.10
2023-02-04T17:57:16.119Z,59.10
2023-02-04T17:59:46.482Z,59.20
2023-02-04T18:02:32.272Z,59.10
2023-02-04T18:05:14.933Z,59.10
2023-02-04T18:08:07.707Z,59.10
2023-02-04T18:10:43.344Z,59.20
2023-02-04T18:13:20.798Z,59.20
2023-02-04T18:15:57.115Z,59.20
2023-02-04T18:18:28.566Z,59.20
2023-02-04T18:21:02.184Z,59.30
2023-02-04T18:23:34.946Z,59.20
2023-02-04T18:26:15.914Z,59.20
2023-02-04T18:28:49.490Z,59.20
2023-02-04T18:31:37.667Z,59.20
2023-02-04T18:34:22.625Z,59.20
2023-02-04T18:36:53.729Z,59.30
2023-02-04T18:39:29.547Z,59.30
2023-02-04T18:41:59.864Z,59.30
2023-02-04T18:44:42.484Z,59.30
2023-02-04T18:47:34.437Z,59.30
2023-02-04T18:50:20.897Z,59.30
2023-02-04T18:52:51.149Z,59.40
2023-02-04T18:55:40.306Z,59.40
2023-02-04T18:58:38.079Z,59.30
2023-02-04T19:01:25.603Z,59.30
2023-02-04T19:03:59.135Z,59.30
2023-02-04T19:06:39.371Z,59.40
2023-02-04T19:09:15.830Z,59.40
2023-02-04T19:11:48.405Z,59.40
2023-02-04T19:14:27.752Z,59.40
2023-02-04T19:17:21.602Z,59.40
2023-02-04T19:20:03.346Z,59.40
2023-02-04T19:22:51.374Z,59.50
2023-02-04T19:25:32.780Z,59.50
2023-02-04T19:28:06.402Z,59.50
2023-02-04T19:30:52.461Z,59.50
2023-02-04T19:33:43.817Z,59.50
2023-02-04T19:36:20.954Z,59.50
2023-02-04T19:38:54.290Z,59.60
2023-02-04T19:41:35.695Z,59.50
2023-02-04T19:44:43.970Z,59.60
2023-02-04T19:47:44.209Z,59.50
2023-02-04T19:50:23.403Z,59.50
2023-02-04T19:53:05.317Z,59.60
2023-02-04T19:55:44.013Z,59.60
2023-02-04T19:58:19.178Z,59.60
2023-02-04T20:01:07.013Z,59.60
2023-02-04T20:03:45.731Z,59.60
2023-02-04T20:06:32.407Z,59.60
2023-02-04T20:09:06.225Z,59.60
2023-02-04T20:11:46.664Z,59.60
2023-02-04T20:14:16.887Z,59.60
2023-02-04T20:17:09.822Z,59.60
2023-02-04T20:19:42.781Z,59.60
2023-02-04T20:22:25.272Z,59.70
2023-02-04T20:25:01.570Z,59.60
2023-02-04T20:27:39.724Z,59.70
2023-02-04T20:30:15.822Z,59.70
2023-02-04T20:32:48.547Z,59.70
2023-02-04T20:35:24.834Z,59.80
2023-02-04T20:38:02.814Z,59.70
2023-02-04T20:40:38.273Z,59.70
2023-02-04T20:43:25.793Z,59.80
2023-02-04T20:46:02.379Z,59.80
2023-02-04T20:48:32.627Z,59.80
2023-02-04T20:51:05.585Z,59.80
2023-02-04T20:53:52.067Z,59.80
2023-02-04T20:56:27.816Z,59.80
2023-02-04T20:59:19.208Z,59.80
2023-02-04T21:01:52.484Z,59.80
2023-02-04T21:04:48.633Z,59.90
2023-02-04T21:07:24.086Z,59.80
2023-02-04T21:09:54.611Z,59.90
2023-02-04T21:12:27.113Z,59.90
2023-02-04T21:14:57.343Z,59.90
2023-02-04T21:17:27.601Z,59.90
2023-02-04T21:19:57.877Z,59.90
2023-02-04T21:22:28.152Z,59.90
2023-02-04T21:24:58.981Z,59.90
2023-02-04T21:27:29.307Z,59.90
2023-02-04T21:29:59.723Z,60.00
2023-02-04T21:32:29.959Z,60.00
2023-02-04T21:35:00.239Z,60.00
2023-02-04T21:37:30.724Z,60.10
2023-02-04T21:40:01.027Z,60.10
2023-02-04T21:42:31.218Z,60.20
2023-02-04T21:45:02.925Z,60.30
2023-02-04T21:47:33.315Z,60.30
2023-02-04T21:50:03.519Z,60.30
2023-02-04T21:52:33.879Z,60.40
2023-02-04T21:55:04.332Z,60.40
2023-02-04T21:57:35.973Z,60.30
2023-02-04T22:00:07.546Z,60.40
2023-02-04T22:02:38.027Z,60.50
2023-02-04T22:05:09.473Z,60.50
2023-02-04T22:07:41.488Z,60.50
2023-02-04T22:10:16.580Z,60.50
2023-02-04T22:12:46.760Z,60.60
2023-02-04T22:15:24.407Z,60.60
2023-02-04T22:17:55.995Z,60.70
2023-02-04T22:20:27.312Z,60.90
2023-02-04T22:22:57.499Z,60.90
2023-02-04T22:25:27.790Z,61.10
2023-02-04T22:27:57.986Z,61.10
2023-02-04T22:30:28.320Z,61.10
2023-02-04T22:32:58.625Z,61.40
2023-02-04T22:35:31.711Z,61.70
2023-02-04T22:38:02.349Z,62.80
2023-02-04T22:40:32.563Z,62.50
2023-02-04T22:43:02.952Z,62.10
2023-02-04T22:45:33.442Z,61.80
2023-02-04T22:48:04.046Z,61.80
2023-02-04T22:50:34.332Z,61.90
2023-02-04T22:53:04.556Z,61.70
2023-02-04T22:55:35.013Z,61.70
2023-02-04T22:58:05.502Z,61.40
2023-02-04T23:00:35.822Z,62.70
2023-02-04T23:03:06.483Z,63.90
2023-02-04T23:05:38.114Z,64.40
2023-02-04T23:08:09.017Z,63.70
2023-02-04T23:10:39.271Z,63.60
2023-02-04T23:13:09.711Z,63.20
2023-02-04T23:15:40.330Z,63.00
2023-02-04T23:18:10.631Z,62.90
2023-02-04T23:20:42.683Z,63.10
2023-02-04T23:23:19.218Z,63.30
2023-02-04T23:25:50.510Z,63.50
2023-02-04T23:28:20.864Z,63.60
2023-02-04T23:30:51.232Z,63.80
2023-02-04T23:33:21.528Z,63.80
2023-02-04T23:35:52.218Z,63.80
2023-02-04T23:38:33.184Z,64.00
2023-02-04T23:41:03.423Z,64.20
2023-02-04T23:43:33.669Z,64.20
2023-02-04T23:46:03.929Z,64.30
2023-02-04T23:48:34.489Z,64.20
2023-02-04T23:51:04.763Z,64.20
2023-02-04T23:53:35.151Z,64.10
2023-02-04T23:56:05.509Z,64.10
2023-02-04T23:58:35.723Z,64.10
